x

9442396 - La Push, Wa (lapw1) Weather Station

2:36am - Wed 22nd Feb 2017 All times are PST. -8 hours from GMT.

  • Wind
    8mph, 9mph gusts
  • Sea Temp 43°f
  • 空気 Temp 34°f
  • Sea Pressure 1022.3mb
  • 9442396 - La Push, Wa
  • 9442396 - La Push, Wa

More Historic Weather Station data

Upgrade to MSW Pro to gain access to the past 30 days of data for over 8000 Wavebouys and Weather Stations around the globe.

Join Pro

Comparision Forecast

View Surf forecast
   
Wed 02/22 2:36am 8 9 mph 1022.3mb 43f 34f
2:30am 7 8 mph 1022.3mb 43f 34f
2:24am 7 8 mph 1022.3mb 43f 34f
2:18am 7 9 mph 1022.3mb 43f 35f
2:12am 7 8 mph 1022.3mb 43f 35f
2:06am 5 6 mph 1022.3mb 43f 35f
2:00am 3 7 mph 1022.3mb 43f 36f
1:36am 13 20 mph 1022.6mb 43f 35f
1:30am 7 11 mph 1022.3mb 43f 34f
1:24am 7 10 mph 1022.3mb 43f 35f
1:18am 3 9 mph 1022.2mb 44f 35f
1:12am 6 8 mph 1022.2mb 44f 35f
1:06am 6 7 mph 1022.1mb 44f 36f
1:00am 5 11 mph 1022mb 44f 39f
12:36am 8 9 mph 1021.9mb 46f 35f
12:30am 6 8 mph 1021.9mb 46f 35f
12:24am 7 9 mph 1021.9mb 46f 36f
12:18am 6 8 mph 1021.8mb 47f 36f
12:12am 5 7 mph 1021.8mb 46f 36f
12:06am 6 8 mph 1021.7mb 46f 36f
12:00am 6 7 mph 1021.7mb 47f 36f
Tue 02/21 11:36pm 6 7 mph 1021.6mb 47f 36f
11:30pm 5 7 mph 1021.5mb 47f 37f
11:24pm 6 7 mph 1021.5mb 47f 37f
11:18pm 3 6 mph 1021.5mb 47f 37f
11:12pm 5 6 mph 1021.4mb 47f 38f
11:06pm 5 7 mph 1021.4mb 47f 37f
11:00pm 2 3 mph 1021.3mb 47f 37f
10:36pm 5 10 mph 1021.2mb 47f 37f
10:30pm 5 7 mph 1021.2mb 47f 38f
10:24pm 6 7 mph 1021.2mb 47f 39f
10:18pm 3 5 mph 1021.2mb 47f 40f
10:12pm 3 6 mph 1021.1mb 47f 42f
10:06pm 3 8 mph 1021.1mb 47f 42f
10:00pm 14 17 mph 1021.3mb 47f 42f
9:36pm 3 10 mph 1020.8mb 47f 44f
9:30pm 8 10 mph 1020.9mb 47f 44f
9:24pm 8 10 mph 1020.8mb 47f 44f
9:18pm 7 18 mph 1020.8mb 47f 44f
9:12pm 14 17 mph 1020.9mb 47f 44f
9:06pm 10 14 mph 1020.5mb 47f 44f
9:00pm 11 17 mph 1020.5mb 47f 44f
8:36pm 14 20 mph 1020.3mb 47f 44f
8:30pm 10 14 mph 1020.3mb 46f 45f
8:24pm 11 14 mph 1020.1mb 46f 45f
8:18pm 11 16 mph 1020.1mb 46f 45f
8:12pm 10 14 mph 1020.1mb 46f 45f
8:06pm 9 14 mph 1020.1mb 46f 45f
8:00pm 10 14 mph 1020.1mb 46f 45f
7:36pm 13 16 mph 1020mb 46f 45f
7:30pm 11 15 mph 1019.9mb 45f 45f
7:24pm 11 15 mph 1019.9mb 45f 45f
7:18pm 11 14 mph 1019.8mb 45f 45f
7:12pm 13 16 mph 1019.8mb 44f 45f
7:06pm 14 16 mph 1019.9mb 44f 45f
7:00pm 13 17 mph 1019.8mb 43f 45f
6:36pm 13 15 mph 1019.6mb 43f 45f
6:30pm 10 14 mph 1019.4mb 43f 45f
6:24pm 10 14 mph 1019.2mb 43f 45f
6:18pm 11 14 mph 1019.2mb 42f 44f
6:12pm 6 8 mph 1019.1mb 43f 44f
6:06pm 3 6 mph 1019mb 43f 44f
6:00pm 5 6 mph 1019mb 42f 44f
5:36pm 10 16 mph 1018.9mb 42f 43f
5:30pm 15 23 mph 1018.8mb 42f 43f
5:24pm 18 22 mph 1018.9mb 42f 45f
5:18pm 14 15 mph 1018.6mb 42f 45f
5:12pm 11 16 mph 1018.6mb 42f 45f
5:06pm 15 18 mph 1018.6mb 42f 45f
5:00pm 15 20 mph 1018.5mb 42f 45f
4:36pm 14 17 mph 1018.3mb 42f 46f
4:30pm 13 15 mph 1018.2mb 42f 46f
4:24pm 10 15 mph 1018.3mb 42f 46f
4:18pm 14 16 mph 1018.3mb 42f 46f
4:12pm 14 17 mph 1018.2mb 42f 46f
4:06pm 16 18 mph 1018.1mb 42f 46f
4:00pm 14 17 mph 1018.1mb 42f 46f
3:36pm 11 14 mph 1017.7mb 42f 45f
3:30pm 10 14 mph 1017.6mb 42f 45f
3:24pm 9 13 mph 1017.5mb 42f 45f
3:18pm 11 13 mph 1017.4mb 42f 45f
3:12pm 10 16 mph 1017.3mb 42f 46f
3:06pm 11 16 mph 1017.3mb 42f 45f
3:00pm 14 17 mph 1017.2mb 42f 45f
2:36pm 15 18 mph 1016.8mb 42f 45f
2:30pm 14 17 mph 1016.7mb 42f 45f
2:24pm 15 17 mph 1016.5mb 42f 45f
2:18pm 17 20 mph 1016.4mb 42f 45f
2:12pm 16 20 mph 1016.4mb 42f 45f
2:06pm 16 18 mph 1016.3mb 42f 45f
2:00pm 16 20 mph 1016.2mb 42f 45f
1:36pm 16 20 mph 1016mb 42f 45f
1:30pm 14 20 mph 1015.9mb 42f 45f
1:24pm 18 23 mph 1015.9mb 42f 45f
1:18pm 16 18 mph 1015.9mb 42f 45f
1:12pm 17 21 mph 1015.9mb 42f 45f
1:06pm 18 21 mph 1015.9mb 41f 45f
1:00pm 16 21 mph 1015.8mb 41f 45f
12:36pm 17 22 mph 1015.7mb 42f 45f
12:30pm 17 22 mph 1015.7mb 42f 45f
12:24pm 18 22 mph 1015.6mb 42f 45f
12:18pm 17 23 mph 1015.7mb 42f 45f
12:12pm 18 23 mph 1015.6mb 42f 45f
12:06pm 18 23 mph 1015.6mb 42f 45f
12:00pm 18 21 mph 1015.5mb 42f 45f
11:36am 20 23 mph 1015.2mb 43f 45f
11:30am 21 24 mph 1015.2mb 43f 45f
11:24am 17 23 mph 1015.1mb 43f 45f
11:18am 18 24 mph 1015mb 43f 45f
11:12am 17 21 mph 1014.8mb 44f 45f
11:06am 20 22 mph 1014.6mb 44f 45f
11:00am 20 23 mph 1014.5mb 44f 45f
10:36am 17 22 mph 1014mb 45f 45f
10:30am 14 18 mph 1013.9mb 46f 44f
10:24am 15 20 mph 1013.8mb 46f 44f
10:18am 16 20 mph 1013.7mb 46f 44f
10:12am 15 22 mph 1013.6mb 46f 44f
10:06am 14 21 mph 1013.4mb 46f 44f
10:00am 17 22 mph 1013.3mb 46f 44f
9:36am 14 18 mph 1012.8mb 46f 44f
9:30am 14 18 mph 1012.7mb 46f 44f
9:24am 15 18 mph 1012.6mb 46f 44f
9:18am 16 18 mph 1012.4mb 46f 44f
9:12am 15 18 mph 1012.3mb 46f 44f
9:06am 14 20 mph 1012.1mb 46f 44f
9:00am 15 17 mph 1012mb 46f 43f
8:36am 6 8 mph 1011.5mb 46f 40f
8:30am 5 6 mph 1011.4mb 46f 40f
8:24am 3 6 mph 1011.3mb 46f 40f
8:18am 5 9 mph 1011.1mb 46f 39f
8:12am 3 7 mph 1011mb 46f 39f
8:06am 3 6 mph 1010.9mb 46f 39f
8:00am 2 5 mph 1010.8mb 46f 39f
7:36am 2 5 mph 1010.2mb 47f 39f
7:30am 3 5 mph 1010mb 47f 39f
7:24am 3 5 mph 1009.9mb 47f 39f
7:18am 3 7 mph 1009.7mb 46f 39f
7:12am 3 7 mph 1009.6mb 46f 38f
7:06am 3 8 mph 1009.6mb 46f 38f
7:00am 3 6 mph 1009.5mb 46f 38f
6:36am 1 5 mph 1009.2mb 46f 36f
6:30am 3 6 mph 1009.1mb 46f 38f
6:24am 3 7 mph 1009mb 46f 38f
6:18am 5 7 mph 1008.9mb 46f 38f
6:12am 3 9 mph 1008.8mb 46f 38f
6:06am 5 7 mph 1008.7mb 46f 38f
6:00am 5 6 mph 1008.7mb 46f 35f
5:36am 1 2 mph 1008.4mb 46f 33f
5:30am 2 5 mph 1008.3mb 46f 32f
5:24am  -  2 mph 1008.2mb 46f 31f
5:18am 1 3 mph 1008.1mb 46f 32f
5:12am 2 5 mph 1008mb 46f 32f
5:06am 3 5 mph 1008mb 46f 32f
5:00am 3 5 mph 1007.9mb 46f 32f
4:36am 5 8 mph 1007.7mb 46f 32f
4:30am 6 7 mph 1007.6mb 46f 32f
4:24am 7 8 mph 1007.6mb 46f 32f
4:18am 5 8 mph 1007.5mb 46f 32f
4:12am 5 8 mph 1007.4mb 46f 32f
4:06am 5 6 mph 1007.4mb 46f 33f
4:00am 6 7 mph 1007.3mb 46f 33f
3:36am 6 9 mph 1007.2mb 45f 33f
3:30am 6 7 mph 1007.2mb 45f 33f
3:24am 6 8 mph 1007.3mb 44f 33f
3:18am 6 8 mph 1007.2mb 44f 33f
3:12am 7 8 mph 1007.3mb 44f 33f
3:06am 5 7 mph 1007.3mb 43f 33f
3:00am 3 6 mph 1007.4mb 43f 33f
2:54am 6
mph
1007.5mb 43f 33f
2:48am 5 7 mph 1007.5mb 43f 33f
2:36am 5
mph
1007.6mb 43f 33f
2:30am 3 5 mph 1007.6mb 43f 33f
2:24am 3 5 mph 1007.6mb 43f 33f
2:18am 3 5 mph 1007.6mb 43f 34f
2:12am 5 6 mph 1007.5mb 43f 34f
2:06am 5 7 mph 1007.5mb 43f 34f
2:00am 6 8 mph 1007.5mb 43f 34f
1:54am 6 9 mph 1007.5mb 43f 34f
1:48am 6 7 mph 1007.6mb 43f 33f
1:36am 6
mph
1007.4mb 43f 34f
1:30am 3 5 mph 1007.3mb 43f 34f
1:24am 2
mph
1007.3mb 43f 34f
1:18am 3 6 mph 1007.2mb 43f 35f
1:12am 5 6 mph 1007.2mb 43f 35f
1:06am 6 7 mph 1007.1mb 43f 35f
1:00am 6 8 mph 1007.1mb 43f 35f
12:54am 6 8 mph 1007.1mb 43f 35f
12:48am 6 8 mph 1007.1mb 43f 35f
12:36am 6
mph
1006.9mb 43f 35f
12:30am 6 7 mph 1006.9mb 43f 35f
12:24am 6 9 mph 1006.8mb 43f 35f
12:18am 5 8 mph 1006.7mb 43f 35f
12:12am 5 7 mph 1006.7mb 43f 35f
12:06am 6 7 mph 1006.8mb 43f 36f
12:00am 6 7 mph 1006.7mb 44f 36f
Mon 02/20 11:54pm 5 7 mph 1006.7mb 44f 36f
11:48pm 5 6 mph 1006.6mb 44f 37f
11:36pm 3 5 mph 1006.5mb 44f 37f
11:30pm 3 5 mph 1006.5mb 45f 36f
11:24pm 5 6 mph 1006.5mb 45f 36f
11:18pm 3 6 mph 1006.7mb 45f 35f
11:12pm 3 5 mph 1006.9mb 45f 36f
11:06pm 2 5 mph 1007mb 45f 37f
11:00pm 3
mph
1007mb 45f 37f
10:54pm 2 3 mph 1007.1mb 45f 36f
10:48pm  -  3 mph 1007.2mb 46f 37f
10:36pm 2 3 mph 1007.3mb 46f 36f
10:30pm 1 2 mph 1007.4mb 46f 36f
10:24pm  -  2 mph 1007.4mb 46f 37f
10:18pm 2 3 mph 1007.2mb 46f 37f
10:12pm 2 5 mph 1007.2mb 46f 37f
10:06pm 3 5 mph 1007.3mb 46f 37f
10:00pm 2 5 mph 1007.3mb 46f 37f
9:54pm 3 5 mph 1007.2mb 46f 37f
9:48pm 3 5 mph 1007.1mb 46f 38f
9:36pm 3 5 mph 1006.8mb 46f 39f
9:30pm 3 6 mph 1006.7mb 46f 39f
9:24pm 5 6 mph 1006.6mb 46f 39f
9:18pm 3 6 mph 1006.6mb 46f 40f
9:12pm 3 6 mph 1006.5mb 46f 40f
9:06pm 5 6 mph 1006.4mb 46f 41f
9:00pm 5 7 mph 1006.4mb 46f 41f
8:54pm 5 7 mph 1006.4mb 46f 41f
8:48pm 6 7 mph 1006.4mb 46f 40f
8:36pm 2 3 mph 1006.6mb 46f 39f
8:30pm 1 2 mph 1006.6mb 46f 39f
8:24pm 2
mph
1006.6mb 46f 39f
8:18pm  -  1 mph 1006.6mb 46f 39f
8:12pm  -  2 mph 1006.6mb 46f 40f
8:06pm 1 2 mph 1006.5mb 46f 40f
8:00pm  -  2 mph 1006.5mb 46f 40f
7:54pm 2
mph
1006.5mb 46f 40f
7:48pm 2
mph
1006.5mb 46f 40f
7:36pm  -  2 mph 1006.5mb 46f 41f
7:30pm 2 3 mph 1006.5mb 46f 41f
7:24pm 2
mph
1006.5mb 46f 42f
7:18pm 2
mph
1006.4mb 46f 42f
7:12pm 2
mph
1006.3mb 45f 42f
7:06pm 2
mph
1006.3mb 45f 42f
7:00pm 2
mph
1006.3mb 45f 42f
6:54pm 2
mph
1006.3mb 45f 43f
6:48pm 2
mph
1006.3mb 44f 43f
6:36pm 2 3 mph 1006.2mb 44f 43f
6:30pm 2 3 mph 1006.1mb 44f 43f
6:24pm 2 3 mph 1006mb 44f 44f
6:18pm 2
mph
1006mb 43f 44f
6:12pm 1 2 mph 1006mb 43f 44f
6:06pm 1 2 mph 1006mb 43f 44f
6:00pm 2
mph
1005.9mb 43f 44f
5:54pm 2 3 mph 1005.9mb 43f 45f
5:48pm 3 6 mph 1005.9mb 43f 45f
5:36pm 2 3 mph 1005.8mb 43f 45f
5:30pm 2 3 mph 1005.8mb 43f 45f
5:24pm 2 7 mph 1005.8mb 43f 45f
5:18pm 5
mph
1005.8mb 43f 45f
5:12pm 3 8 mph 1005.7mb 43f 45f
5:06pm 3 9 mph 1005.7mb 43f 46f
5:00pm 7 13 mph 1005.7mb 43f 46f
4:54pm 9 11 mph 1005.7mb 43f 46f
4:48pm 9 13 mph 1005.6mb 43f 46f
4:36pm 8 11 mph 1005.5mb 43f 46f
4:30pm 8 10 mph 1005.5mb 43f 46f
4:24pm 9 11 mph 1005.4mb 43f 46f
4:18pm 9 11 mph 1005.3mb 43f 46f
4:12pm 9 14 mph 1005.2mb 43f 46f
4:06pm 11 14 mph 1005.2mb 43f 46f
4:00pm 13 14 mph 1005.2mb 43f 46f
3:54pm 11 14 mph 1005.1mb 43f 46f
3:48pm 11 14 mph 1005mb 43f 46f
3:36pm 11 13 mph 1004.9mb 43f 46f
3:30pm 11 14 mph 1004.8mb 43f 46f
3:24pm 11 14 mph 1004.7mb 43f 46f
3:18pm 11 14 mph 1004.6mb 43f 46f
3:12pm 11 14 mph 1004.5mb 42f 46f
3:06pm 13 14 mph 1004.4mb 43f 46f
3:00pm 11 14 mph 1004.3mb 42f 46f
2:54pm 11 14 mph 1004.1mb 43f 46f
2:48pm 10 13 mph 1004.1mb 42f 46f
2:36pm 10 11 mph 1003.9mb 42f 46f
2:30pm 9 10 mph 1003.9mb 42f 46f
2:24pm 9 10 mph 1003.8mb 43f 46f
2:18pm 7 10 mph 1003.7mb 42f 46f
2:12pm 8 10 mph 1003.6mb 42f 46f
2:06pm 9 10 mph 1003.5mb 42f 46f
2:00pm 8 11 mph 1003.4mb 42f 46f
1:54pm 8 9 mph 1003.3mb 42f 46f
1:48pm 8 10 mph 1003.3mb 42f 46f
1:36pm 8 10 mph 1003.2mb 42f 46f
1:30pm 8 10 mph 1003.1mb 42f 46f
1:24pm 8 10 mph 1003mb 42f 46f
1:18pm 9 11 mph 1003mb 42f 46f
1:12pm 8 10 mph 1002.9mb 42f 46f
1:06pm 8 10 mph 1002.8mb 42f 46f
1:00pm 9 10 mph 1002.7mb 43f 46f
12:54pm 8 11 mph 1002.7mb 42f 46f
12:48pm 9 11 mph 1002.6mb 42f 46f
12:36pm 10 11 mph 1002.5mb 42f 46f
12:30pm 7 8 mph 1002.4mb 42f 46f
12:24pm 7 8 mph 1002.3mb 42f 46f
12:18pm 7 9 mph 1002.2mb 42f 46f
12:12pm 7 9 mph 1002.2mb 42f 46f
12:06pm 8 9 mph 1002.1mb 42f 46f
12:00pm 7 9 mph 1002mb 42f 45f
11:54am 7 9 mph 1001.8mb 42f 45f
11:48am 7
mph
1001.6mb 42f 45f
11:36am 7 8 mph 1001.4mb 43f 45f
11:30am 6 7 mph 1001.3mb 43f 45f
11:24am 6 7 mph 1001.2mb 43f 45f
11:18am 7 8 mph 1001.2mb 43f 44f
11:12am 6 7 mph 1001mb 43f 44f
11:06am 1 2 mph 1000.9mb 43f 43f
11:00am  -  mph 1000.9mb 43f 43f
10:36am  -  3 mph 1000.4mb 43f 42f
10:30am 1 2 mph 1000.3mb 43f 42f
10:24am  -  1 mph 1000.3mb 43f 42f
10:18am  -  1 mph 1000.2mb 43f 42f
10:12am  -  1 mph 1000.1mb 43f 42f
10:06am 2 6 mph 1000mb 44f 42f
10:00am 3 8 mph 999.9mb 44f 41f
9:54am 6 8 mph 999.9mb 44f 41f
9:48am 7 8 mph 999.8mb 44f 41f
9:36am 6 8 mph 999.7mb 44f 41f
9:30am 5 7 mph 999.7mb 45f 41f
9:24am 6 8 mph 999.5mb 45f 40f
9:18am 6 7 mph 999.4mb 45f 40f
9:12am 6 8 mph 999.4mb 45f 40f
9:06am 6 8 mph 999.3mb 45f 40f
9:00am 6 8 mph 999.3mb 46f 41f
8:54am 6 8 mph 999.3mb 46f 41f
8:48am 6 8 mph 999.2mb 46f 40f
8:36am 6 8 mph 999.2mb 46f 40f
8:30am 6 7 mph 999.1mb 46f 40f
8:24am 5 7 mph 999.1mb 46f 40f
8:18am 5 7 mph 999mb 46f 40f
8:12am 5 7 mph 999mb 46f 40f
8:06am 5 9 mph 999mb 46f 40f
8:00am 5 7 mph 999mb 46f 40f
7:54am 6 7 mph 999mb 46f 40f
7:48am 5 6 mph 999mb 46f 40f
7:36am 5 7 mph 998.9mb 46f 40f
7:30am 5 8 mph 998.9mb 46f 40f
7:24am 5 7 mph 998.9mb 46f 40f
7:18am 3 6 mph 998.9mb 46f 40f
7:12am 5 6 mph 999mb 46f 40f
7:06am 3 7 mph 999mb 46f 40f
7:00am 5 7 mph 999mb 46f 40f
6:54am 5 6 mph 999.1mb 46f 40f
6:48am 5 7 mph 999.1mb 46f 40f
6:36am 6 7 mph 999.2mb 46f 40f
6:30am 3 8 mph 999.2mb 46f 40f
6:24am 5 7 mph 999.2mb 46f 40f
6:18am 3 6 mph 999.2mb 46f 40f
6:12am 3 8 mph 999.2mb 46f 40f
6:06am 6 7 mph 999.3mb 46f 40f
6:00am 5 7 mph 999.3mb 46f 40f
5:54am 5 7 mph 999.3mb 46f 40f
5:48am 3 6 mph 999.4mb 46f 40f
5:36am 5 7 mph 999.4mb 46f 40f
5:30am 3 6 mph 999.4mb 46f 40f
5:24am 6 7 mph 999.4mb 46f 40f
5:18am 6 7 mph 999.5mb 46f 40f
5:12am 6 8 mph 999.5mb 45f 40f
5:06am 5 7 mph 999.6mb 45f 40f
5:00am 5 8 mph 999.6mb 45f 40f
4:54am 6 8 mph 999.6mb 45f 40f
4:48am 6 7 mph 999.6mb 45f 40f
4:36am 5 6 mph 999.7mb 45f 40f
4:30am 5 6 mph 999.8mb 45f 40f
4:24am 3 6 mph 999.9mb 45f 40f
4:18am 5 7 mph 1000mb 45f 40f
4:12am 6 7 mph 1000mb 45f 40f
4:06am 6 7 mph 1000mb 45f 40f
4:00am 6 8 mph 1000.1mb 44f 40f
3:54am 5 7 mph 1000.1mb 44f 40f
3:48am 5 7 mph 1000.1mb 44f 40f
3:36am 6 7 mph 1000.3mb 44f 40f
3:30am 5 6 mph 1000.4mb 43f 40f
3:24am 5 6 mph 1000.5mb 43f 40f
3:18am 5 7 mph 1000.6mb 43f 40f
3:12am 6 8 mph 1000.6mb 43f 40f
3:06am 5 7 mph 1000.7mb 43f 40f
3:00am 6 7 mph 1000.8mb 43f 40f
2:54am 5 8 mph 1000.8mb 43f 40f
2:48am 3 6 mph 1000.9mb 43f 40f
2:36am 3 6 mph 1001.1mb 43f 40f
2:30am 3 6 mph 1001.1mb 43f 40f
2:24am 3 5 mph 1001.1mb 43f 40f
2:18am 3 6 mph 1001.2mb 43f 40f
2:12am 5 6 mph 1001.3mb 43f 41f
2:06am 5 7 mph 1001.4mb 43f 41f
2:00am 5 6 mph 1001.4mb 43f 41f
1:54am 5 7 mph 1001.4mb 43f 41f
1:48am 2 5 mph 1001.4mb 43f 41f
1:36am 3 6 mph 1001.6mb 43f 41f
1:30am 3 6 mph 1001.5mb 43f 41f
1:24am 3 7 mph 1001.6mb 43f 41f
1:18am 3 6 mph 1001.5mb 43f 41f
1:12am 3 7 mph 1001.6mb 43f 41f
1:06am 3 6 mph 1001.6mb 43f 41f
1:00am 3 5 mph 1001.6mb 43f 41f
12:54am 3 5 mph 1001.7mb 43f 41f
12:48am 3 6 mph 1001.7mb 43f 41f
12:36am 3 5 mph 1001.7mb 43f 41f
12:30am 3 6 mph 1001.8mb 43f 41f
12:24am 3 7 mph 1001.8mb 43f 41f
12:18am 2 5 mph 1001.8mb 43f 41f
12:12am 3 5 mph 1001.8mb 43f 41f
12:06am 2 5 mph 1001.8mb 43f 41f
12:00am 3 6 mph 1001.8mb 43f 42f
Sun 02/19 11:54pm 3 5 mph 1001.8mb 43f 42f
11:48pm 2 5 mph 1001.8mb 43f 42f
11:36pm 5 6 mph 1001.9mb 43f 43f
11:30pm 3 6 mph 1001.9mb 43f 43f
11:24pm 5 6 mph 1001.9mb 43f 43f
11:18pm 5 6 mph 1001.8mb 43f 43f
11:12pm 5 8 mph 1001.8mb 43f 43f
11:06pm 7 9 mph 1001.7mb 43f 43f
11:00pm 3 6 mph 1001.7mb 43f 43f
10:54pm 2 3 mph 1001.6mb 43f 43f
10:48pm 3 7 mph 1001.6mb 43f 43f
10:36pm 5 10 mph 1001.6mb 43f 43f
10:30pm 11 16 mph 1001.6mb 43f 42f
10:24pm 3 6 mph 1001.4mb 43f 42f
10:18pm 5 6 mph 1001.3mb 43f 42f
10:12pm 6 8 mph 1001.3mb 43f 42f
10:06pm 6 7 mph 1001.2mb 43f 42f
10:00pm 3 5 mph 1001.1mb 43f 42f
9:54pm 3 5 mph 1001mb 43f 42f
9:48pm 2 3 mph 1001mb 43f 42f
9:36pm 3 6 mph 1000.9mb 43f 42f
9:30pm 5 6 mph 1000.9mb 43f 42f
9:24pm 2 5 mph 1000.8mb 44f 42f
9:18pm 2 3 mph 1000.8mb 44f 42f
9:12pm 2 5 mph 1000.7mb 44f 42f
9:06pm 1 2 mph 1000.7mb 44f 42f
9:00pm 2 5 mph 1000.6mb 44f 42f
8:54pm 3 5 mph 1000.5mb 44f 43f
8:48pm 2 3 mph 1000.4mb 44f 44f
8:36pm 6
mph
1000.3mb 45f 45f
8:30pm 6 10 mph 1000.3mb 46f 45f
8:24pm 7 9 mph 1000.2mb 45f 45f
8:18pm 6 10 mph 1000.1mb 45f 45f
8:12pm 7 10 mph 1000.1mb 45f 45f
8:06pm 9 13 mph 1000mb 45f 45f
8:00pm 10 14 mph 999.9mb 45f 46f
7:54pm 7 9 mph 999.9mb 46f 46f
7:48pm 7 9 mph 999.8mb 46f 46f
7:36pm 6 8 mph 999.6mb 46f 46f
7:30pm 7 8 mph 999.6mb 46f 46f
7:24pm 7 10 mph 999.5mb 46f 46f
7:18pm 8 10 mph 999.4mb 46f 46f
7:12pm 8 10 mph 999.3mb 46f 46f
7:06pm 9 11 mph 999.2mb 46f 46f
7:00pm 10 13 mph 999.1mb 46f 46f
6:54pm 10 13 mph 999mb 46f 44f
6:48pm 3 6 mph 998.9mb 46f 44f
6:36pm 5 6 mph 998.7mb 46f 44f
6:30pm 6 8 mph 998.6mb 46f 44f
6:24pm 7 10 mph 998.6mb 46f 45f
6:18pm 8 14 mph 998.5mb 46f 44f
6:12pm 6 10 mph 998.4mb 46f 45f
6:06pm 7 16 mph 998.3mb 46f 44f
6:00pm 6 10 mph 998.1mb 46f 44f
5:54pm 7 14 mph 997.9mb 46f 43f
5:48pm 3 10 mph 997.9mb 46f 43f
5:36pm 10 14 mph 997.7mb 45f 43f
5:30pm 7 11 mph 997.6mb 45f 43f
5:24pm 7 14 mph 997.5mb 44f 43f
5:18pm 7 16 mph 997.4mb 44f 42f
5:12pm 6 9 mph 997.3mb 44f 42f
5:06pm 8 14 mph 997.2mb 43f 42f
5:00pm 7 14 mph 997.1mb 43f 42f
4:54pm 6 14 mph 997mb 43f 42f
4:48pm 7 14 mph 996.9mb 43f 42f
4:36pm 5 14 mph 996.8mb 43f 43f
4:30pm 6 14 mph 996.7mb 43f 43f
4:24pm 7 14 mph 996.6mb 43f 43f
4:18pm 8 15 mph 996.6mb 43f 43f
4:12pm 9 16 mph 996.5mb 43f 43f
4:06pm 5 13 mph 996.4mb 43f 43f
4:00pm 10 17 mph 996.3mb 43f 43f
3:36pm 10 18 mph 995.9mb 43f 44f
3:30pm 8 15 mph 995.8mb 43f 44f
3:24pm 7 16 mph 995.7mb 43f 44f
3:18pm 9 15 mph 995.7mb 43f 44f
3:12pm 9 16 mph 995.6mb 43f 44f
3:06pm 10 14 mph 995.5mb 43f 44f
3:00pm 11 17 mph 995.4mb 43f 44f
2:54pm 9 16 mph 995.3mb 43f 44f
2:48pm 9 15 mph 995.2mb 43f 44f
2:36pm 10 16 mph 995.2mb 43f 44f
2:30pm 7 13 mph 995.1mb 43f 44f
2:24pm 9 16 mph 995.1mb 43f 44f
2:18pm 8 17 mph 994.9mb 43f 44f
2:12pm 10 23 mph 994.9mb 43f 44f
2:06pm 13 20 mph 994.8mb 43f 44f
2:00pm 13 24 mph 994.8mb 43f 44f
1:54pm 10 18 mph 994.8mb 43f 44f
1:48pm 10 17 mph 994.7mb 43f 43f
1:36pm 5 14 mph 994.6mb 43f 44f
1:30pm 8 16 mph 994.6mb 43f 44f
1:24pm 14 20 mph 994.5mb 43f 44f
1:18pm 13 18 mph 994.5mb 43f 44f
1:12pm 10 22 mph 994.5mb 43f 44f
1:06pm 14 23 mph 994.5mb 43f 44f
1:00pm 13 22 mph 994.4mb 42f 44f
12:54pm 10 18 mph 994.4mb 42f 44f
12:48pm 11 21 mph 994.3mb 42f 44f
12:36pm 10 22 mph 994.2mb 42f 45f
12:30pm 9 16 mph 994.2mb 42f 44f
12:24pm 10 22 mph 994.2mb 42f 44f
12:18pm 13 22 mph 994.1mb 42f 44f
12:12pm 9 18 mph 994.1mb 42f 44f
12:06pm 11 20 mph 994.2mb 42f 43f
12:00pm 7 17 mph 994.1mb 42f 43f
11:54am 11 21 mph 994.1mb 42f 43f
11:48am 8 20 mph 994mb 42f 43f
11:36am 10 20 mph 994.1mb 42f 43f
11:30am 6 18 mph 994.1mb 43f 43f
11:24am 9 13 mph 994mb 42f 43f
11:18am 8 16 mph 994mb 43f 43f
11:12am 13 18 mph 994mb 43f 42f
11:06am 8 18 mph 993.9mb 43f 42f
11:00am 7 16 mph 993.8mb 43f 42f
10:54am 8 15 mph 993.8mb 43f 42f
10:48am 6 13 mph 993.8mb 43f 42f
10:36am 7 13 mph 993.7mb 42f 42f
10:30am 7 14 mph 993.6mb 42f 42f
10:24am 8 14 mph 993.7mb 43f 42f
10:18am 8 15 mph 993.6mb 43f 42f
10:12am 8 13 mph 993.6mb 43f 42f
10:06am 8 16 mph 993.7mb 43f 41f
10:00am 7 11 mph 993.7mb 42f 41f
9:54am 8 11 mph 993.6mb 43f 41f
9:48am 9 14 mph 993.6mb 43f 42f
9:36am 8 14 mph 993.4mb 43f 42f
9:30am 10 15 mph 993.5mb 43f 42f
9:24am 7 16 mph 993.4mb 43f 42f
9:18am 6 11 mph 993.4mb 44f 42f
9:12am 8 11 mph 993.4mb 44f 41f
9:06am 5 13 mph 993.3mb 44f 41f
9:00am 6 9 mph 993.3mb 44f 41f
8:54am 6 13 mph 993.2mb 44f 40f
8:48am 6 9 mph 993.3mb 44f 40f
8:36am 5 8 mph 993.3mb 45f 39f
8:30am 5 8 mph 993.4mb 45f 39f
8:24am 5 8 mph 993.3mb 45f 39f
8:18am 3 7 mph 993.4mb 46f 39f
8:12am 3 7 mph 993.5mb 46f 39f
8:06am 5 7 mph 993.4mb 46f 39f
8:00am 5 7 mph 993.3mb 46f 39f
7:54am 3 7 mph 993.3mb 46f 39f
7:48am 5 7 mph 993.2mb 46f 39f
7:36am 5 8 mph 993.3mb 46f 39f
7:30am 5 8 mph 993.3mb 46f 39f
7:24am 5 7 mph 993.3mb 46f 38f
7:18am 5 7 mph 993.4mb 46f 38f
7:12am 5 7 mph 993.4mb 46f 38f
7:06am 5 7 mph 993.3mb 46f 38f
7:00am 5 8 mph 993.3mb 46f 38f
6:54am 6 7 mph 993.3mb 46f 38f
6:48am 6 8 mph 993.3mb 46f 38f
6:36am 3 6 mph 993.3mb 46f 38f
6:30am 3 6 mph 993.3mb 47f 38f
6:24am 5 6 mph 993.3mb 46f 38f
6:18am 5 8 mph 993.4mb 46f 38f
6:12am 5 7 mph 993.5mb 46f 38f
6:06am 5 7 mph 993.5mb 46f 38f
6:00am 3 8 mph 993.5mb 46f 38f
5:54am 5 8 mph 993.5mb 47f 38f
5:48am 5 9 mph 993.5mb 46f 38f
5:36am 5 9 mph 993.4mb 46f 38f
5:30am 5 7 mph 993.4mb 47f 38f
5:24am 5 8 mph 993.4mb 47f 38f
5:18am 5 7 mph 993.4mb 46f 38f
5:12am 6 8 mph 993.4mb 46f 38f
5:06am 3 8 mph 993.4mb 46f 38f
5:00am 3 10 mph 993.5mb 46f 38f